Time;durP1;ratioP1;P1;durP2;ratioP2;P2;SDS_P1;SDS_P2;PMS_P1;PMS_P2;Temp;Humidity;BMP_temperature;BMP_pressure;BME280_temperature;BME280_humidity;BME280_pressure;Samples;Min_cycle;Max_cycle;Signal;HPM_P1;HPM_P2
2023/03/09 00:00:27;;;;;;;0.00;0.00;;;4.80;87.60;;;;;;5068036;28;20037;-71
2023/03/09 00:02:53;;;;;;;0.00;0.00;;;4.70;87.50;;;;;;5066778;28;20032;-66
2023/03/09 00:05:20;;;;;;;0.00;0.00;;;4.70;87.70;;;;;;5066499;28;20452;-71
2023/03/09 00:07:47;;;;;;;0.00;0.00;;;4.60;87.70;;;;;;5068074;28;20067;-71
2023/03/09 00:10:14;;;;;;;0.00;0.00;;;4.50;87.80;;;;;;5068067;28;20488;-71
2023/03/09 00:12:40;;;;;;;0.00;0.00;;;4.40;87.80;;;;;;5066794;28;20036;-71
2023/03/09 00:15:07;;;;;;;0.00;0.00;;;4.30;88.00;;;;;;5068228;28;20037;-71
2023/03/09 00:17:33;;;;;;;0.00;0.00;;;4.40;88.10;;;;;;5067694;28;20123;-71
2023/03/09 00:20:14;;;;;;;0.00;0.00;;;4.30;88.00;;;;;;5066435;28;20123;-71
2023/03/09 00:22:40;;;;;;;0.00;0.00;;;4.30;88.10;;;;;;5067820;28;20381;-71
2023/03/09 00:25:06;;;;;;;;;;;4.30;88.10;;;;;;5050401;28;20032;-71
2023/03/09 00:27:32;;;;;;;0.00;0.00;;;4.30;88.00;;;;;;5067782;28;19931;-71
2023/03/09 00:29:58;;;;;;;0.00;0.00;;;4.30;88.00;;;;;;5066612;28;20029;-71
2023/03/09 00:32:24;;;;;;;0.10;0.10;;;4.30;88.00;;;;;;5067789;28;20033;-71
2023/03/09 00:34:49;;;;;;;0.10;0.10;;;4.30;87.90;;;;;;5066393;28;20067;-71
2023/03/09 00:37:15;;;;;;;0.10;0.10;;;4.20;87.90;;;;;;5067618;28;20089;-71
2023/03/09 00:39:41;;;;;;;0.00;0.00;;;4.20;88.00;;;;;;5067746;28;20032;-71
2023/03/09 00:42:07;;;;;;;0.10;0.10;;;4.10;88.00;;;;;;5066436;28;20045;-71
2023/03/09 00:44:32;;;;;;;0.20;0.20;;;4.10;88.00;;;;;;5066341;28;20055;-71
2023/03/09 00:46:58;;;;;;;0.13;0.13;;;4.10;88.10;;;;;;5067430;28;20107;-71
2023/03/09 00:49:24;;;;;;;0.10;0.10;;;4.10;88.10;;;;;;5066353;28;20028;-71
2023/03/09 00:51:50;;;;;;;0.10;0.10;;;4.10;88.10;;;;;;5067606;28;20028;-71
2023/03/09 00:54:16;;;;;;;0.20;0.20;;;4.20;88.10;;;;;;5066292;28;20029;-71
2023/03/09 00:56:42;;;;;;;0.20;0.20;;;4.10;88.10;;;;;;5066090;28;20036;-71
2023/03/09 00:59:08;;;;;;;0.10;0.10;;;4.10;88.10;;;;;;5067324;28;20016;-71
2023/03/09 01:01:34;;;;;;;0.20;0.20;;;4.10;88.10;;;;;;5066317;28;20060;-71
2023/03/09 01:03:59;;;;;;;0.20;0.20;;;4.20;88.10;;;;;;5066091;28;20441;-71
2023/03/09 01:06:25;;;;;;;0.20;0.20;;;4.20;88.00;;;;;;5067455;28;20033;-71
2023/03/09 01:08:52;;;;;;;0.20;0.20;;;4.20;88.00;;;;;;5049430;28;20115;-71
2023/03/09 01:11:18;;;;;;;0.30;0.30;;;4.20;88.00;;;;;;5066337;28;20041;-71
2023/03/09 01:13:44;;;;;;;;;;;4.30;88.00;;;;;;5071807;28;20016;-71
2023/03/09 01:16:10;;;;;;;0.15;0.15;;;4.30;88.00;;;;;;5069801;28;20445;-71
2023/03/09 01:18:36;;;;;;;0.30;0.30;;;4.30;87.70;;;;;;5071458;28;20028;-71
2023/03/09 01:21:02;;;;;;;0.30;0.30;;;4.30;87.60;;;;;;5071243;28;20036;-71
2023/03/09 01:23:28;;;;;;;0.30;0.30;;;4.30;87.60;;;;;;5070058;28;20046;-71
2023/03/09 01:25:54;;;;;;;0.30;0.30;;;4.30;87.70;;;;;;5071246;28;20048;-71
2023/03/09 01:28:19;;;;;;;0.30;0.30;;;4.30;87.80;;;;;;5070075;28;20048;-71
2023/03/09 01:30:45;;;;;;;0.30;0.30;;;4.30;87.80;;;;;;5069837;28;20071;-71
2023/03/09 01:33:11;;;;;;;0.30;0.30;;;4.30;87.80;;;;;;5071059;28;20499;-71
2023/03/09 01:35:38;;;;;;;0.35;0.35;;;4.30;87.80;;;;;;5070941;28;20087;-71
2023/03/09 01:38:04;;;;;;;0.40;0.40;;;4.30;87.90;;;;;;5069909;28;20384;-71
2023/03/09 01:40:30;;;;;;;0.50;0.50;;;4.40;87.90;;;;;;5069506;28;20037;-71
2023/03/09 01:43:01;;;;;;;0.40;0.40;;;4.40;87.90;;;;;;5070997;28;20039;-71
2023/03/09 01:45:27;;;;;;;0.30;0.30;;;4.40;87.90;;;;;;5069426;28;20036;-71
2023/03/09 01:47:56;;;;;;;0.40;0.40;;;4.50;87.80;;;;;;5070978;28;20158;-71
2023/03/09 01:50:28;;;;;;;0.50;0.50;;;4.50;87.80;;;;;;5070728;28;20093;-71
2023/03/09 01:52:57;;;;;;;0.40;0.40;;;4.60;87.70;;;;;;5069279;28;20032;-71
2023/03/09 01:55:29;;;;;;;0.50;0.50;;;4.50;87.70;;;;;;5068973;28;20020;-71
2023/03/09 01:58:23;;;;;;;0.40;0.40;;;4.50;87.80;;;;;;5069296;28;20021;-71
2023/03/09 02:00:52;;;;;;;0.50;0.50;;;4.50;87.90;;;;;;5070447;28;20099;-71
2023/03/09 02:03:37;;;;;;;0.40;0.40;;;4.60;88.00;;;;;;5069078;28;20365;-71
2023/03/09 02:06:14;;;;;;;0.40;0.40;;;4.50;87.90;;;;;;5070441;28;20020;-71
2023/03/09 02:08:48;;;;;;;0.50;0.50;;;4.60;88.10;;;;;;5070439;28;20050;-71
2023/03/09 02:11:14;;;;;;;0.47;0.47;;;4.60;88.00;;;;;;5070376;28;20423;-71
2023/03/09 02:13:42;;;;;;;;;;;4.60;88.00;;;;;;5070974;28;20112;-71
2023/03/09 02:16:07;;;;;;;;;;;4.60;88.10;;;;;;5069304;28;19909;-71
2023/03/09 02:18:33;;;;;;;0.30;0.30;;;4.60;88.00;;;;;;5070292;28;19912;-71
2023/03/09 02:21:34;;;;;;;0.50;0.50;;;4.60;88.00;;;;;;5069949;28;20036;-71
2023/03/09 02:24:27;;;;;;;0.50;0.50;;;4.60;88.00;;;;;;4970639;28;20029;-71
2023/03/09 02:27:15;;;;;;;0.50;0.50;;;4.70;88.10;;;;;;5067902;28;20032;-71
2023/03/09 02:29:41;;;;;;;0.43;0.43;;;4.80;88.10;;;;;;5051337;28;20056;-71
2023/03/09 02:32:07;;;;;;;0.50;0.50;;;4.80;88.00;;;;;;5069948;28;20508;-71
2023/03/09 02:34:32;;;;;;;0.55;0.55;;;4.90;87.90;;;;;;5069967;28;20444;-71
2023/03/09 02:36:58;;;;;;;0.55;0.55;;;4.90;87.90;;;;;;5069829;28;20047;-72
2023/03/09 02:39:49;;;;;;;0.50;0.50;;;4.90;87.90;;;;;;5068553;28;20481;-71
2023/03/09 02:42:16;;;;;;;0.40;0.40;;;4.80;87.90;;;;;;5069184;28;20090;-71
2023/03/09 02:44:43;;;;;;;0.40;0.40;;;4.80;88.00;;;;;;5068756;28;20023;-71
2023/03/09 02:47:15;;;;;;;0.50;0.50;;;4.80;88.10;;;;;;5068257;28;20060;-71
2023/03/09 02:49:41;;;;;;;0.40;0.40;;;4.90;88.30;;;;;;5068333;28;20456;-71
2023/03/09 02:52:07;;;;;;;0.40;0.40;;;4.90;88.20;;;;;;5051715;28;20035;-71
2023/03/09 02:54:32;;;;;;;0.30;0.30;;;4.90;88.20;;;;;;5068308;28;20504;-71
2023/03/09 02:56:58;;;;;;;0.30;0.30;;;5.00;88.20;;;;;;5068241;28;20041;-71
2023/03/09 02:59:24;;;;;;;0.20;0.20;;;4.90;88.10;;;;;;5068108;28;20032;-71
2023/03/09 03:01:49;;;;;;;0.20;0.20;;;4.90;88.10;;;;;;5069282;28;20485;-71
2023/03/09 03:04:15;;;;;;;0.20;0.20;;;4.90;88.20;;;;;;5068155;28;20040;-71
2023/03/09 03:06:41;;;;;;;0.20;0.20;;;4.90;88.20;;;;;;5069414;28;20704;-71
2023/03/09 03:09:07;;;;;;;0.20;0.20;;;4.90;88.20;;;;;;5067994;28;20056;-72
2023/03/09 03:11:32;;;;;;;0.20;0.20;;;5.00;88.30;;;;;;5069407;28;20455;-71
2023/03/09 03:13:59;;;;;;;0.10;0.10;;;5.00;88.20;;;;;;5069242;28;20115;-72
2023/03/09 03:16:25;;;;;;;0.10;0.10;;;5.00;88.30;;;;;;5068827;28;20040;-71
2023/03/09 03:18:51;;;;;;;0.10;0.10;;;5.00;88.30;;;;;;5067737;28;20020;-71
2023/03/09 03:21:17;;;;;;;0.00;0.00;;;5.00;88.40;;;;;;5069042;28;20044;-71
2023/03/09 03:23:43;;;;;;;0.10;0.10;;;5.00;88.30;;;;;;5068877;28;20017;-71
2023/03/09 03:26:10;;;;;;;0.00;0.00;;;5.00;88.30;;;;;;5068958;28;20032;-71
2023/03/09 03:28:36;;;;;;;0.00;0.00;;;5.00;88.30;;;;;;5068934;28;20353;-71
2023/03/09 03:31:02;;;;;;;;;;;5.00;88.20;;;;;;5069475;28;20029;-71
2023/03/09 03:33:28;;;;;;;0.00;0.00;;;5.00;88.20;;;;;;5068874;28;20356;-71
2023/03/09 03:35:55;;;;;;;0.00;0.00;;;5.00;88.20;;;;;;5068311;28;20027;-71
2023/03/09 03:38:21;;;;;;;0.00;0.00;;;5.00;88.20;;;;;;5068707;28;20096;-72
2023/03/09 03:40:48;;;;;;;0.00;0.00;;;4.90;88.10;;;;;;5034187;28;20471;-71
2023/03/09 03:43:13;;;;;;;0.00;0.00;;;4.90;88.20;;;;;;5068538;28;20060;-71
2023/03/09 03:45:39;;;;;;;0.00;0.00;;;4.90;88.20;;;;;;5068661;28;20056;-71
2023/03/09 03:48:06;;;;;;;0.00;0.00;;;4.90;88.20;;;;;;5067239;28;20034;-71
2023/03/09 03:50:31;;;;;;;;;;;4.90;88.20;;;;;;5068917;28;20120;-71
2023/03/09 03:52:57;;;;;;;0.00;0.00;;;4.90;88.30;;;;;;5068926;28;20007;-71
2023/03/09 03:55:23;;;;;;;0.00;0.00;;;4.90;88.20;;;;;;5067072;28;20044;-71
2023/03/09 03:57:49;;;;;;;0.00;0.00;;;4.90;88.20;;;;;;5050477;28;20126;-72
2023/03/09 04:00:19;;;;;;;0.00;0.00;;;4.90;88.10;;;;;;5050458;28;20426;-72
2023/03/09 04:02:44;;;;;;;0.00;0.00;;;4.80;88.00;;;;;;5068298;28;20051;-71
2023/03/09 04:05:10;;;;;;;0.00;0.00;;;4.70;88.10;;;;;;5068103;28;20024;-71
2023/03/09 04:07:36;;;;;;;0.00;0.00;;;4.60;88.20;;;;;;5068137;28;20114;-71
2023/03/09 04:10:02;;;;;;;0.00;0.00;;;4.60;88.30;;;;;;5068062;28;20033;-71
2023/03/09 04:12:28;;;;;;;0.00;0.00;;;4.60;88.40;;;;;;5050282;28;20040;-72
2023/03/09 04:14:54;;;;;;;0.00;0.00;;;4.50;88.40;;;;;;5066736;28;20075;-71
2023/03/09 04:17:19;;;;;;;0.00;0.00;;;4.60;88.50;;;;;;5067766;28;20507;-72
2023/03/09 04:19:45;;;;;;;0.00;0.00;;;4.50;88.30;;;;;;5066502;28;20120;-71
2023/03/09 04:22:11;;;;;;;0.00;0.00;;;4.50;88.40;;;;;;5066489;28;20365;-71
2023/03/09 04:24:37;;;;;;;0.00;0.00;;;4.40;88.40;;;;;;5067876;28;20111;-71
2023/03/09 04:27:02;;;;;;;0.00;0.00;;;4.30;88.50;;;;;;5049954;28;20131;-71
2023/03/09 04:29:28;;;;;;;0.00;0.00;;;4.30;88.50;;;;;;5067847;28;20032;-71
2023/03/09 04:31:54;;;;;;;0.00;0.00;;;4.30;88.60;;;;;;5049812;28;20120;-71
2023/03/09 04:34:19;;;;;;;0.00;0.00;;;4.30;88.60;;;;;;5067799;28;20040;-71
2023/03/09 04:36:45;;;;;;;0.10;0.10;;;4.20;88.60;;;;;;5067581;28;20036;-71
2023/03/09 04:39:11;;;;;;;0.00;0.00;;;4.30;88.70;;;;;;5067656;28;20033;-71
2023/03/09 04:41:37;;;;;;;0.10;0.10;;;4.20;88.60;;;;;;5067700;28;20479;-72
2023/03/09 04:44:03;;;;;;;0.10;0.10;;;4.20;88.50;;;;;;5067662;28;20104;-72
2023/03/09 04:46:29;;;;;;;0.10;0.10;;;4.20;88.60;;;;;;5066764;28;20028;-72
2023/03/09 04:48:54;;;;;;;0.10;0.10;;;4.20;88.60;;;;;;5066234;28;20101;-72
2023/03/09 04:51:20;;;;;;;0.00;0.00;;;4.20;88.60;;;;;;5066332;28;20047;-72
2023/03/09 04:53:46;;;;;;;0.10;0.10;;;4.20;88.60;;;;;;5066295;28;20115;-72
2023/03/09 04:56:12;;;;;;;0.10;0.10;;;4.20;88.60;;;;;;5066223;28;20037;-72
2023/03/09 04:58:38;;;;;;;0.10;0.10;;;4.20;88.60;;;;;;5066289;28;20102;-72
2023/03/09 05:01:04;;;;;;;0.10;0.10;;;4.20;88.60;;;;;;5049296;28;20082;-72
2023/03/09 05:03:30;;;;;;;0.10;0.10;;;4.20;88.50;;;;;;5067470;28;20246;-72
2023/03/09 05:05:56;;;;;;;0.10;0.10;;;4.20;88.60;;;;;;5065710;28;20063;-71
2023/03/09 05:08:22;;;;;;;0.10;0.10;;;4.20;88.50;;;;;;5067345;28;20025;-71
2023/03/09 05:10:47;;;;;;;0.10;0.10;;;4.20;88.50;;;;;;5067464;28;20032;-72
2023/03/09 05:13:13;;;;;;;0.20;0.20;;;4.20;88.50;;;;;;5067344;28;20124;-72
2023/03/09 05:15:40;;;;;;;0.20;0.20;;;4.10;88.50;;;;;;5067119;28;20518;-72
2023/03/09 05:18:07;;;;;;;0.20;0.20;;;4.10;88.60;;;;;;5066073;28;20086;-72
2023/03/09 05:20:33;;;;;;;0.20;0.20;;;4.10;88.60;;;;;;5065926;28;20040;-72
2023/03/09 05:23:00;;;;;;;;;;;4.00;88.60;;;;;;5067695;28;20024;-72
2023/03/09 05:25:26;;;;;;;0.10;0.10;;;4.00;88.60;;;;;;5066220;28;19908;-72
2023/03/09 05:27:52;;;;;;;0.20;0.20;;;4.00;88.60;;;;;;5067266;28;20024;-72
2023/03/09 05:30:19;;;;;;;0.30;0.30;;;4.00;88.60;;;;;;5067695;28;20044;-72
2023/03/09 05:32:46;;;;;;;0.30;0.30;;;4.00;88.60;;;;;;5067112;28;20477;-72
2023/03/09 05:35:12;;;;;;;0.32;0.32;;;4.00;88.60;;;;;;5067161;28;20437;-72
2023/03/09 05:37:37;;;;;;;0.30;0.30;;;4.00;88.70;;;;;;5067416;28;20111;-72
2023/03/09 05:40:04;;;;;;;0.40;0.40;;;4.00;88.60;;;;;;5066012;28;20032;-72
2023/03/09 05:42:31;;;;;;;0.40;0.40;;;4.00;88.60;;;;;;5067103;28;20053;-72
2023/03/09 05:44:56;;;;;;;;;;;4.00;88.60;;;;;;5067510;28;20037;-72
2023/03/09 05:47:22;;;;;;;0.35;0.35;;;3.90;88.60;;;;;;5066952;28;20007;-72
2023/03/09 05:49:49;;;;;;;0.50;0.50;;;3.90;88.50;;;;;;5066961;28;20105;-72
2023/03/09 05:52:15;;;;;;;0.52;0.52;;;3.90;88.60;;;;;;5066734;28;20032;-72
2023/03/09 05:54:41;;;;;;;0.70;0.70;;;3.80;88.50;;;;;;5067048;28;20033;-72
2023/03/09 05:57:07;;;;;;;0.80;0.80;;;3.80;88.50;;;;;;5066790;28;20042;-72
2023/03/09 05:59:33;;;;;;;0.70;0.70;;;3.80;88.50;;;;;;5070371;28;20077;-72
2023/03/09 06:01:58;;;;;;;0.90;0.90;;;3.70;88.60;;;;;;5069166;28;20081;-72
2023/03/09 06:04:24;;;;;;;0.90;0.90;;;3.70;88.60;;;;;;5069257;28;20024;-72
2023/03/09 06:06:50;;;;;;;0.80;0.80;;;3.70;88.60;;;;;;5069165;28;20573;-72
2023/03/09 06:09:15;;;;;;;1.00;1.00;;;3.60;88.50;;;;;;5070451;28;20055;-72
2023/03/09 06:11:41;;;;;;;1.10;1.10;;;3.60;88.60;;;;;;5069112;28;20395;-71
2023/03/09 06:14:08;;;;;;;1.13;1.10;;;3.60;88.50;;;;;;5068933;28;20021;-72
2023/03/09 06:16:34;;;;;;;1.27;1.17;;;3.60;88.60;;;;;;5069998;28;20068;-72
2023/03/09 06:19:00;;;;;;;1.38;1.27;;;3.60;88.50;;;;;;5068753;28;20114;-71
2023/03/09 06:21:26;;;;;;;1.60;1.50;;;3.60;88.60;;;;;;5068905;28;20399;-71
2023/03/09 06:23:55;;;;;;;1.50;1.40;;;3.60;88.60;;;;;;5070400;28;20078;-72
2023/03/09 06:26:22;;;;;;;1.50;1.40;;;3.60;88.60;;;;;;5070042;28;20031;-72
2023/03/09 06:28:48;;;;;;;1.50;1.40;;;3.50;88.40;;;;;;5068781;28;20095;-72
2023/03/09 06:31:15;;;;;;;1.70;1.60;;;3.40;88.40;;;;;;5069680;28;20128;-72
2023/03/09 06:33:43;;;;;;;1.63;1.52;;;3.30;88.50;;;;;;5068634;28;20577;-72
2023/03/09 06:36:11;;;;;;;1.90;1.80;;;3.30;88.40;;;;;;5069810;28;20111;-72
2023/03/09 06:38:37;;;;;;;1.65;1.55;;;3.20;88.50;;;;;;5070194;28;20170;-72
2023/03/09 06:41:03;;;;;;;1.80;1.70;;;3.20;88.50;;;;;;5069661;28;20524;-72
2023/03/09 06:43:29;;;;;;;1.50;1.40;;;3.20;88.50;;;;;;5069737;28;20440;-71
2023/03/09 06:45:55;;;;;;;1.60;1.50;;;3.20;88.50;;;;;;5069695;28;20028;-71
2023/03/09 06:48:21;;;;;;;2.30;2.10;;;3.20;88.50;;;;;;5069686;28;20029;-71
2023/03/09 06:50:48;;;;;;;1.80;1.70;;;3.20;88.40;;;;;;5068221;28;20028;-71
2023/03/09 06:53:15;;;;;;;2.20;2.00;;;3.10;88.40;;;;;;5069480;28;20090;-71
2023/03/09 06:55:40;;;;;;;2.05;1.90;;;3.20;88.50;;;;;;5069383;28;20056;-71
2023/03/09 06:58:06;;;;;;;2.88;2.67;;;3.20;88.50;;;;;;5069371;28;20052;-71
2023/03/09 07:00:37;;;;;;;2.63;2.42;;;3.10;88.40;;;;;;5069028;28;20045;-70
2023/03/09 07:03:04;;;;;;;2.50;2.30;;;3.20;88.50;;;;;;5068264;28;20074;-71
2023/03/09 07:05:29;;;;;;;2.58;2.38;;;3.30;88.40;;;;;;5067793;28;20110;-71
2023/03/09 07:07:55;;;;;;;2.80;2.60;;;3.30;88.30;;;;;;5068026;28;20024;-71
2023/03/09 07:10:21;;;;;;;3.05;2.85;;;3.30;88.40;;;;;;5066973;28;20040;-71
2023/03/09 07:12:48;;;;;;;2.95;2.75;;;3.30;88.30;;;;;;5069176;28;20395;-71
2023/03/09 07:15:14;;;;;;;3.60;3.30;;;3.30;88.40;;;;;;5068982;28;20029;-71
2023/03/09 07:17:41;;;;;;;;;;;3.40;88.30;;;;;;5069124;28;20384;-71
2023/03/09 07:20:08;;;;;;;3.33;3.10;;;3.40;88.30;;;;;;5069122;28;19912;-71
2023/03/09 07:22:34;;;;;;;4.10;3.80;;;3.40;88.20;;;;;;5069093;28;20214;-71
2023/03/09 07:25:02;;;;;;;4.88;4.57;;;3.50;88.30;;;;;;5067359;28;20166;-71
2023/03/09 07:27:28;;;;;;;4.55;4.25;;;3.50;88.30;;;;;;5067358;28;20050;-71
2023/03/09 07:29:54;;;;;;;5.00;4.70;;;3.50;88.30;;;;;;5068511;28;20025;-71
2023/03/09 07:32:19;;;;;;;5.70;5.40;;;3.50;88.40;;;;;;5051039;28;20137;-65
2023/03/09 07:34:45;;;;;;;5.63;5.32;;;3.50;88.40;;;;;;5068763;28;20028;-71
2023/03/09 07:37:11;;;;;;;5.43;5.13;;;3.50;88.50;;;;;;5068538;28;20032;-72
2023/03/09 07:39:36;;;;;;;4.90;4.60;;;3.40;88.40;;;;;;5067250;28;20036;-71
2023/03/09 07:42:02;;;;;;;5.80;5.50;;;3.40;88.50;;;;;;5068650;28;20032;-70
2023/03/09 07:44:28;;;;;;;5.38;5.07;;;3.40;88.60;;;;;;5068535;28;20547;-70
2023/03/09 07:46:54;;;;;;;;;;;3.50;88.60;;;;;;5068815;28;20396;-71
2023/03/09 07:49:20;;;;;;;4.80;4.50;;;3.50;88.60;;;;;;5068269;28;19908;-71
2023/03/09 07:51:46;;;;;;;4.85;4.55;;;3.50;88.60;;;;;;5068314;28;20444;-71
2023/03/09 07:54:12;;;;;;;5.53;5.22;;;3.50;88.60;;;;;;5066737;28;20145;-71
2023/03/09 07:56:37;;;;;;;5.75;5.45;;;3.50;88.60;;;;;;5068072;28;20047;-71
2023/03/09 07:59:03;;;;;;;6.22;5.90;;;3.60;88.70;;;;;;5067600;28;20033;-73
2023/03/09 08:01:30;;;;;;;6.50;6.10;;;3.60;88.70;;;;;;5067681;28;20029;-71
2023/03/09 08:03:55;;;;;;;6.25;5.93;;;3.60;88.70;;;;;;5066755;28;20424;-75
2023/03/09 08:06:21;;;;;;;6.75;6.35;;;3.60;88.70;;;;;;5049825;28;20028;-76
2023/03/09 08:08:47;;;;;;;6.80;6.40;;;3.70;88.70;;;;;;5067938;28;20451;-75
2023/03/09 08:11:13;;;;;;;7.22;6.82;;;3.70;88.60;;;;;;5067903;28;20053;-75
2023/03/09 08:13:39;;;;;;;7.20;6.80;;;3.70;88.60;;;;;;5068009;28;20036;-75
2023/03/09 08:16:07;;;;;;;6.25;5.93;;;3.70;88.70;;;;;;5067073;28;20250;-75
2023/03/09 08:18:34;;;;;;;6.57;6.18;;;3.70;88.70;;;;;;5067722;28;20033;-75
2023/03/09 08:21:08;;;;;;;6.18;5.85;;;3.70;88.70;;;;;;5067629;28;20032;-76
2023/03/09 08:23:37;;;;;;;6.72;6.32;;;3.70;88.80;;;;;;5067621;28;20279;-75
2023/03/09 08:26:03;;;;;;;6.05;5.75;;;3.70;88.80;;;;;;5067655;28;20192;-76
2023/03/09 08:28:30;;;;;;;6.20;5.90;;;3.70;88.90;;;;;;5066309;28;20097;-75
2023/03/09 08:30:55;;;;;;;6.05;5.75;;;3.70;88.90;;;;;;5067437;28;20041;-76
2023/03/09 08:33:21;;;;;;;6.32;5.95;;;3.70;89.00;;;;;;5067493;28;20032;-75
2023/03/09 08:35:47;;;;;;;6.53;6.13;;;3.70;88.80;;;;;;5067927;28;20111;-75
2023/03/09 08:38:13;;;;;;;6.63;6.22;;;3.70;88.80;;;;;;5067556;28;20040;-75
2023/03/09 08:40:38;;;;;;;6.78;6.38;;;3.60;88.80;;;;;;5067560;28;20060;-76
2023/03/09 08:43:05;;;;;;;6.63;6.22;;;3.70;89.00;;;;;;5066185;28;20063;-75
2023/03/09 08:45:30;;;;;;;;;;;3.70;89.00;;;;;;5066191;28;20036;-78
2023/03/09 08:47:56;;;;;;;6.05;5.75;;;3.70;89.00;;;;;;5065822;28;19923;-75
2023/03/09 08:50:22;;;;;;;6.60;6.20;;;3.70;88.80;;;;;;5067739;28;20028;-74
2023/03/09 08:52:48;;;;;;;6.38;5.97;;;3.70;88.80;;;;;;5067423;28;20473;-76
2023/03/09 08:55:14;;;;;;;6.43;6.03;;;3.60;88.90;;;;;;5067490;28;20086;-75
2023/03/09 08:57:40;;;;;;;7.10;6.70;;;3.60;89.10;;;;;;5065589;28;20086;-75
2023/03/09 09:00:08;;;;;;;7.45;7.05;;;3.70;89.10;;;;;;5066752;28;20047;-75
2023/03/09 09:02:34;;;;;;;7.80;7.40;;;3.80;89.10;;;;;;5066716;28;20025;-76
2023/03/09 09:05:00;;;;;;;7.07;6.68;;;3.80;89.00;;;;;;5066746;28;20402;-74
2023/03/09 09:07:25;;;;;;;7.35;6.95;;;3.80;89.00;;;;;;5065389;28;20127;-75
2023/03/09 09:09:51;;;;;;;7.45;7.05;;;3.80;89.10;;;;;;5070221;28;20024;-74
2023/03/09 09:12:17;;;;;;;7.90;7.50;;;3.90;89.20;;;;;;5078984;28;20074;-73
2023/03/09 09:14:43;;;;;;;8.32;7.93;;;3.90;89.00;;;;;;5075377;28;20036;-75
2023/03/09 09:17:09;;;;;;;7.47;7.07;;;3.80;88.90;;;;;;5077363;28;20044;-75
2023/03/09 09:19:35;;;;;;;7.30;6.90;;;3.90;89.00;;;;;;5074866;28;20399;-75
2023/03/09 09:22:03;;;;;;;8.10;7.70;;;3.90;89.00;;;;;;5076362;28;20059;-75
2023/03/09 09:24:36;;;;;;;7.70;7.30;;;3.90;88.90;;;;;;5077315;28;20439;-75
2023/03/09 09:27:03;;;;;;;8.10;7.70;;;3.90;89.00;;;;;;5076717;28;20031;-75
2023/03/09 09:29:29;;;;;;;7.35;6.95;;;3.80;89.00;;;;;;5075434;28;20013;-75
2023/03/09 09:31:54;;;;;;;8.20;7.80;;;3.80;89.10;;;;;;5078160;28;20473;-75
2023/03/09 09:34:22;;;;;;;8.50;8.10;;;3.80;89.20;;;;;;5061568;28;20039;-76
2023/03/09 09:36:48;;;;;;;8.05;7.65;;;3.80;89.10;;;;;;5077151;28;20040;-76
2023/03/09 09:39:14;;;;;;;8.05;7.65;;;3.80;89.10;;;;;;5082285;28;20028;-71
2023/03/09 09:41:41;;;;;;;;;;;3.80;89.10;;;;;;5079490;28;20047;-76
2023/03/09 09:44:14;;;;;;;8.65;8.25;;;3.90;89.20;;;;;;5081515;28;19980;-76
2023/03/09 09:46:41;;;;;;;8.90;8.50;;;3.90;89.20;;;;;;5086071;28;20029;-75
2023/03/09 09:49:12;;;;;;;8.20;7.80;;;3.90;89.10;;;;;;5090856;28;20030;-75
2023/03/09 09:52:02;;;;;;;8.60;8.20;;;3.90;89.30;;;;;;5085851;28;20025;-75
2023/03/09 09:54:41;;;;;;;8.73;8.32;;;3.90;89.30;;;;;;5078610;28;20015;-75
2023/03/09 09:57:15;;;;;;;8.57;8.18;;;4.00;89.20;;;;;;5081526;28;20364;-76
2023/03/09 09:59:55;;;;;;;8.38;7.97;;;4.00;89.30;;;;;;5081177;28;20032;-75
2023/03/09 10:02:36;;;;;;;8.95;8.55;;;4.00;89.30;;;;;;5083251;28;20017;-76
2023/03/09 10:05:15;;;;;;;8.05;7.65;;;4.00;89.20;;;;;;5076063;28;20455;-75
2023/03/09 10:07:41;;;;;;;9.02;8.60;;;4.00;89.20;;;;;;5080128;28;20044;-76
2023/03/09 10:10:22;;;;;;;8.98;8.57;;;4.00;89.30;;;;;;5082750;28;20024;-74
2023/03/09 10:12:48;;;;;;;8.52;8.13;;;4.10;89.40;;;;;;5088510;28;20048;-76
2023/03/09 10:15:28;;;;;;;9.85;9.35;;;4.10;89.30;;;;;;5080248;28;20024;-75
2023/03/09 10:18:02;;;;;;;9.55;9.05;;;4.10;89.30;;;;;;5083725;28;20093;-75
2023/03/09 10:20:38;;;;;;;9.05;8.65;;;4.20;89.40;;;;;;5091607;28;20115;-75
2023/03/09 10:23:21;;;;;;;9.57;9.07;;;4.20;89.40;;;;;;5091925;28;20024;-75
2023/03/09 10:25:51;;;;;;;8.55;8.15;;;4.20;89.40;;;;;;5091787;28;20043;-75
2023/03/09 10:28:19;;;;;;;9.55;9.05;;;4.20;89.30;;;;;;5071609;28;20825;-75
2023/03/09 10:30:49;;;;;;;9.70;9.20;;;4.20;89.20;;;;;;5082181;28;20036;-75
2023/03/09 10:33:33;;;;;;;9.27;8.85;;;4.20;89.30;;;;;;5079409;28;20024;-74
2023/03/09 10:36:12;;;;;;;9.80;9.30;;;4.20;89.30;;;;;;5073092;28;20027;-75
2023/03/09 10:38:39;;;;;;;9.15;8.75;;;4.20;89.30;;;;;;5071713;28;20025;-74
2023/03/09 10:41:16;;;;;;;9.75;9.25;;;4.20;89.40;;;;;;5079348;28;20052;-75
2023/03/09 10:43:42;;;;;;;8.85;8.45;;;4.10;89.30;;;;;;5077675;28;20028;-75
2023/03/09 10:46:22;;;;;;;8.45;8.05;;;4.10;89.30;;;;;;5081881;28;20094;-75
2023/03/09 10:48:51;;;;;;;9.45;8.95;;;4.10;89.50;;;;;;5089551;28;20453;-74
2023/03/09 10:51:29;;;;;;;10.52;10.02;;;4.20;89.50;;;;;;5083876;28;20028;-76
2023/03/09 10:53:56;;;;;;;9.43;8.95;;;4.20;89.60;;;;;;5078893;28;20051;-74
2023/03/09 10:56:27;;;;;;;10.75;10.25;;;4.30;89.60;;;;;;5085696;28;20036;-74
2023/03/09 10:59:21;;;;;;;10.45;9.95;;;4.30;89.50;;;;;;5076963;28;20118;-75
2023/03/09 11:01:52;;;;;;;10.00;9.50;;;4.30;89.30;;;;;;5070817;28;20033;-77
2023/03/09 11:04:23;;;;;;;10.60;10.10;;;4.30;89.70;;;;;;5079350;28;20036;-75
2023/03/09 11:06:57;;;;;;;11.80;11.30;;;4.30;89.70;;;;;;5078595;28;20044;-76
2023/03/09 11:09:41;;;;;;;9.63;9.13;;;4.40;89.70;;;;;;5081243;28;20087;-74
2023/03/09 11:12:34;;;;;;;10.02;9.52;;;4.40;89.50;;;;;;5077377;28;20099;-75
2023/03/09 11:15:03;;;;;;;9.75;9.25;;;4.30;89.40;;;;;;5077740;28;20027;-74
2023/03/09 11:17:33;;;;;;;8.80;8.40;;;4.20;89.70;;;;;;5085578;28;20039;-76
2023/03/09 11:20:20;;;;;;;9.90;9.40;;;4.10;89.50;;;;;;5080721;28;20063;-76
2023/03/09 11:23:00;;;;;;;9.88;9.38;;;4.10;89.50;;;;;;5079260;28;20104;-73
2023/03/09 11:26:01;;;;;;;9.43;8.95;;;4.10;89.80;;;;;;5083846;28;20039;-75
2023/03/09 11:28:53;;;;;;;11.93;11.43;;;4.20;89.90;;;;;;5078970;28;20020;-76
2023/03/09 11:31:37;;;;;;;12.70;12.10;;;4.30;90.00;;;;;;5077891;28;20020;-73
2023/03/09 11:34:06;;;;;;;12.02;11.52;;;4.40;89.90;;;;;;5076071;28;20112;-75
2023/03/09 11:36:38;;;;;;;12.98;12.38;;;4.50;90.00;;;;;;5079421;28;20020;-76
2023/03/09 11:39:13;;;;;;;10.50;10.00;;;4.50;89.50;;;;;;5080378;28;20103;-72
2023/03/09 11:41:45;;;;;;;11.00;10.50;;;4.50;89.60;;;;;;5080077;28;20569;-74
2023/03/09 11:44:32;;;;;;;11.30;10.80;;;4.40;89.40;;;;;;5071849;28;20021;-74
2023/03/09 11:47:04;;;;;;;10.70;10.20;;;4.40;89.60;;;;;;5078419;28;20021;-75
2023/03/09 11:49:31;;;;;;;11.60;11.10;;;4.40;89.60;;;;;;5083761;28;20563;-74
2023/03/09 11:51:58;;;;;;;10.43;9.93;;;4.40;89.80;;;;;;5081415;28;20008;-73
2023/03/09 11:54:29;;;;;;;10.65;10.15;;;4.40;89.90;;;;;;5081453;28;20016;-73
2023/03/09 11:56:57;;;;;;;11.90;11.40;;;4.40;89.70;;;;;;5072487;28;20079;-73
2023/03/09 11:59:35;;;;;;;10.45;9.95;;;4.40;89.70;;;;;;5077995;28;20043;-74
2023/03/09 12:02:19;;;;;;;10.05;9.55;;;4.40;89.80;;;;;;5076041;28;20525;-74
2023/03/09 12:04:48;;;;;;;10.70;10.20;;;4.40;89.70;;;;;;5077349;28;20028;-74
2023/03/09 12:07:24;;;;;;;10.30;9.80;;;4.50;89.70;;;;;;5077517;28;20475;-76
2023/03/09 12:09:53;;;;;;;10.33;9.83;;;4.50;89.80;;;;;;5076824;28;20020;-72
2023/03/09 12:12:21;;;;;;;10.30;9.80;;;4.50;90.00;;;;;;5081721;28;20376;-72
2023/03/09 12:14:59;;;;;;;10.35;9.85;;;4.40;89.50;;;;;;5080788;28;20101;-72
2023/03/09 12:17:31;;;;;;;9.43;8.95;;;4.40;89.70;;;;;;5078915;28;20377;-73
2023/03/09 12:19:58;;;;;;;10.82;10.32;;;4.40;89.90;;;;;;5074228;28;20025;-73
2023/03/09 12:22:33;;;;;;;11.30;10.80;;;4.40;89.90;;;;;;5074051;28;20103;-74
2023/03/09 12:25:05;;;;;;;12.60;12.00;;;4.40;89.90;;;;;;5079107;28;20012;-73
2023/03/09 12:27:34;;;;;;;9.73;9.23;;;4.50;89.90;;;;;;5074087;28;20020;-72
2023/03/09 12:30:00;;;;;;;10.60;10.10;;;4.50;90.00;;;;;;5074956;28;20380;-75
2023/03/09 12:32:26;;;;;;;10.60;10.10;;;4.60;90.00;;;;;;5078835;28;20037;-75
2023/03/09 12:34:57;;;;;;;11.20;10.70;;;4.60;90.00;;;;;;5076809;28;20035;-74
2023/03/09 12:37:38;;;;;;;10.60;10.10;;;4.50;89.90;;;;;;5076527;28;20028;-75
2023/03/09 12:40:27;;;;;;;10.68;10.18;;;4.60;89.90;;;;;;5071550;28;20031;-74
2023/03/09 12:43:15;;;;;;;10.00;9.50;;;4.60;90.00;;;;;;5064635;28;20412;-77
2023/03/09 12:45:42;;;;;;;10.60;10.10;;;4.60;89.90;;;;;;5080219;28;20023;-76
2023/03/09 12:48:23;;;;;;;10.40;9.90;;;4.60;89.80;;;;;;5077925;28;20032;-70
2023/03/09 12:51:18;;;;;;;11.25;10.75;;;4.60;89.90;;;;;;5078708;28;20545;-75
2023/03/09 12:53:58;;;;;;;10.98;10.48;;;4.50;90.00;;;;;;5076340;28;20370;-75
2023/03/09 12:56:26;;;;;;;11.65;11.15;;;4.50;89.90;;;;;;5073480;28;20027;-75
2023/03/09 12:58:53;;;;;;;12.68;12.07;;;4.50;89.80;;;;;;5077555;28;20059;-78
2023/03/09 13:01:18;;;;;;;12.57;11.98;;;4.50;89.90;;;;;;5084574;28;20063;-71
2023/03/09 13:03:51;;;;;;;13.05;12.45;;;4.50;89.90;;;;;;5074443;28;20017;-72
2023/03/09 13:06:54;;;;;;;13.25;12.65;;;4.60;89.90;;;;;;5079261;28;20020;-73